Presque Isle, ME

1:08 AM EST on March 02, 2015 (GMT -0500)
APRSWXNET Presque Isle ME US | Change Station
CLOSE
Current Station
Personal Weather Station
Location: Presque Isle, ME
Elevation: 649 ft
Nearby Weather Stations

Elev 649 ft 46.69 °N, 67.99 °W | Updated 46 minutes ago

Overcast
Overcast
18 °F
Feels Like 18 °F
N
0
Wind Variable Wind from SSE
Gusts 3.0 mph

Today
High -- | Low -- °F
--% Chance of Precip.
Yesterday
High -- | Low -- °F
Precip. -- in
6:10 AM 5:18 PM
Waxing Gibbous, 89% visible
Pressure 29.98 in
Visibility 6.0 miles
Clouds Mostly Cloudy 2400 ft
Overcast 4200 ft
Windchill 18 °F
Dew Point 11 °F
Humidity 75%
Rainfall 0.00 in
Snow Depth Not available.
UV 0 out of 12
Pollen .10 out of 12
Air Quality Not available.
Flu Activity Not available.
METAR KPQI 020555Z AUTO 00000KT 6SM BKN024 OVC042 M07/M11 A2998 RMK AO1 11040 21070 57034

More Conditions Fewer Conditions

Pressure 29.98 in
Visibility 6.0 miles
Clouds Mostly Cloudy 2400 ft
Overcast 4200 ft
Windchill 18 °F
Dew Point 11 °F
Humidity 75%
Rainfall 0.00 in
Snow Depth Not available.
UV 0 out of 12
Pollen .10 out of 12
Air Quality Not available.
Flu Activity Not available.
METAR KPQI 020555Z AUTO 00000KT 6SM BKN024 OVC042 M07/M11 A2998 RMK AO1 11040 21070 57034

More Conditions Fewer Conditions

10-Day Weather Forecast

Almanac

Astronomy

Mar. 02, 2015 Rise Set
Actual Time
Civil Twilight
Nautical Twilight
Astronomical Twilight
Moon
Length of Visible Light
Length of Day
Tomorrow will be .
, % of the Moon is Illuminated

Today's Extremes

State Highs State Lows

Community

WunderPhotos

Upload Photos

1,801,738 photos uploaded!

WunderBlogs® & News

Nearby

Air Quality

  Air Quality AQ Index Pollutant
Not available.

Snow Depth

Station Depth Elevation

Earthquake Activity

City Distance Mag. Time & Date
Minimum magnitude displayed is 2.5.

Coastal Water Temperatures

Place Temperature

Nearby Weather Stations